createdAt,value
2023-02-22T00:00:00.604Z,3.52
2023-02-22T00:01:02.323Z,3.36
2023-02-22T00:02:04.086Z,4.20
2023-02-22T00:03:05.911Z,2.43
2023-02-22T00:04:07.675Z,2.57
2023-02-22T00:05:09.381Z,3.15
2023-02-22T00:06:11.690Z,2.79
2023-02-22T00:07:13.391Z,3.07
2023-02-22T00:08:15.340Z,2.45
2023-02-22T00:09:17.039Z,3.43
2023-02-22T00:10:19.582Z,3.31
2023-02-22T00:11:21.383Z,2.27
2023-02-22T00:12:23.158Z,3.24
2023-02-22T00:13:24.857Z,2.23
2023-02-22T00:14:26.553Z,1.99
2023-02-22T00:15:28.269Z,2.99
2023-02-22T00:16:30.049Z,2.64
2023-02-22T00:17:31.824Z,2.25
2023-02-22T00:18:33.542Z,1.96
2023-02-22T00:19:35.261Z,1.80
2023-02-22T00:20:37.063Z,1.93
2023-02-22T00:21:38.768Z,1.99
2023-02-22T00:22:40.514Z,2.12
2023-02-22T00:23:42.216Z,1.63
2023-02-22T00:24:43.923Z,3.13
2023-02-22T00:25:45.623Z,7.37
2023-02-22T00:26:47.334Z,4.51
2023-02-22T00:27:49.075Z,5.61
2023-02-22T00:28:50.784Z,2.55
2023-02-22T00:29:52.469Z,2.07
2023-02-22T00:30:54.387Z,2.63
2023-02-22T00:31:56.218Z,5.86
2023-02-22T00:32:58.143Z,1.71
2023-02-22T00:33:59.845Z,2.45
2023-02-22T00:35:01.541Z,2.06
2023-02-22T00:36:03.323Z,2.90
2023-02-22T00:37:05.031Z,3.31
2023-02-22T00:38:06.799Z,1.92
2023-02-22T00:39:08.499Z,1.78
2023-02-22T00:40:10.390Z,2.10
2023-02-22T00:41:12.119Z,2.38
2023-02-22T00:42:13.891Z,1.68
2023-02-22T00:43:15.641Z,2.19
2023-02-22T00:44:17.358Z,1.95
2023-02-22T00:45:19.072Z,2.26
2023-02-22T00:46:21.278Z,2.45
2023-02-22T00:47:22.978Z,1.99
2023-02-22T00:48:24.745Z,1.87
2023-02-22T00:49:26.448Z,3.18
2023-02-22T00:50:28.434Z,2.48
2023-02-22T00:51:30.137Z,3.20
2023-02-22T00:52:31.836Z,2.34
2023-02-22T00:53:33.580Z,1.86
2023-02-22T00:54:35.289Z,2.32
2023-02-22T00:55:36.991Z,2.52
2023-02-22T00:56:38.787Z,2.70
2023-02-22T00:57:40.491Z,2.28
2023-02-22T00:58:42.227Z,2.65
2023-02-22T00:59:43.938Z,2.11
2023-02-22T01:00:45.817Z,2.77
2023-02-22T01:01:47.598Z,2.79
2023-02-22T01:02:49.295Z,1.95
2023-02-22T01:03:51.140Z,2.55
2023-02-22T01:04:53.164Z,2.64
2023-02-22T01:05:54.988Z,1.87
2023-02-22T01:06:57.210Z,9.08
2023-02-22T01:07:58.908Z,2.89
2023-02-22T01:09:00.659Z,3.22
2023-02-22T01:10:02.363Z,2.28
2023-02-22T01:11:04.082Z,1.80
2023-02-22T01:12:05.791Z,2.31
2023-02-22T01:13:07.501Z,2.64
2023-02-22T01:14:09.273Z,2.84
2023-02-22T01:15:10.940Z,3.70
2023-02-22T01:16:12.813Z,4.14
2023-02-22T01:17:14.557Z,4.41
2023-02-22T01:18:16.252Z,2.98
2023-02-22T01:19:17.769Z,3.55
2023-02-22T01:20:19.213Z,3.62
2023-02-22T01:21:20.662Z,4.11
2023-02-22T01:22:22.093Z,5.36
2023-02-22T01:23:23.578Z,6.16
2023-02-22T01:24:25.046Z,4.96
2023-02-22T01:25:26.487Z,6.20
2023-02-22T01:26:27.930Z,3.84
2023-02-22T01:27:29.396Z,4.27
2023-02-22T01:28:30.827Z,3.44
2023-02-22T01:29:32.319Z,2.91
2023-02-22T01:30:33.929Z,3.36
2023-02-22T01:31:35.616Z,3.65
2023-02-22T01:32:37.198Z,4.39
2023-02-22T01:33:38.628Z,2.48
2023-02-22T01:34:40.112Z,3.41
2023-02-22T01:35:41.577Z,2.71
2023-02-22T01:36:43.041Z,2.51
2023-02-22T01:37:44.487Z,2.44
2023-02-22T01:38:45.911Z,3.53
2023-02-22T01:39:47.396Z,2.47
2023-02-22T01:40:49.135Z,3.41
2023-02-22T01:41:50.576Z,3.51
2023-02-22T01:42:52.009Z,4.86
2023-02-22T01:43:53.455Z,5.27
2023-02-22T01:44:54.971Z,5.97
2023-02-22T01:45:56.436Z,9.97
2023-02-22T01:46:57.933Z,5.28
2023-02-22T01:47:59.394Z,4.79
2023-02-22T01:49:00.823Z,5.58
2023-02-22T01:50:02.347Z,8.70
2023-02-22T01:51:03.884Z,5.80
2023-02-22T01:52:05.342Z,7.17
2023-02-22T01:53:06.813Z,6.21
2023-02-22T01:54:08.247Z,5.81
2023-02-22T01:55:09.735Z,3.60
2023-02-22T01:56:11.181Z,3.56
2023-02-22T01:57:12.616Z,3.48
2023-02-22T01:58:14.058Z,3.54
2023-02-22T01:59:15.505Z,3.46
2023-02-22T02:00:17.019Z,2.65
2023-02-22T02:01:18.761Z,4.44
2023-02-22T02:02:20.825Z,3.45
2023-02-22T02:03:22.513Z,2.43
2023-02-22T02:04:24.214Z,3.21
2023-02-22T02:05:25.994Z,2.39
2023-02-22T02:06:27.917Z,3.35
2023-02-22T02:07:29.628Z,2.13
2023-02-22T02:08:31.331Z,4.88
2023-02-22T02:09:33.044Z,2.85
2023-02-22T02:10:34.812Z,4.92
2023-02-22T02:11:36.500Z,3.76
2023-02-22T02:12:38.205Z,4.33
2023-02-22T02:13:39.905Z,3.63
2023-02-22T02:14:41.623Z,3.50
2023-02-22T02:15:43.370Z,2.97
2023-02-22T02:16:45.242Z,3.46
2023-02-22T02:17:47.018Z,4.97
2023-02-22T02:18:48.734Z,2.75
2023-02-22T02:19:50.448Z,4.16
2023-02-22T02:20:52.205Z,4.15
2023-02-22T02:21:53.918Z,4.85
2023-02-22T02:22:55.621Z,4.01
2023-02-22T02:23:57.349Z,4.83
2023-02-22T02:24:59.053Z,5.50
2023-02-22T02:26:00.810Z,5.99
2023-02-22T02:27:02.508Z,9.24
2023-02-22T02:28:04.238Z,7.56
2023-02-22T02:29:05.937Z,8.15
2023-02-22T02:30:08.143Z,7.07
2023-02-22T02:31:09.987Z,9.41
2023-02-22T02:32:11.808Z,9.68
2023-02-22T02:33:13.689Z,8.14
2023-02-22T02:34:15.404Z,6.55
2023-02-22T02:35:17.106Z,6.55
2023-02-22T02:36:19.802Z,5.13
2023-02-22T02:37:21.502Z,5.45
2023-02-22T02:38:23.342Z,6.36
2023-02-22T02:39:25.101Z,6.23
2023-02-22T02:40:26.974Z,6.64
2023-02-22T02:41:28.770Z,4.91
2023-02-22T02:42:30.497Z,4.57
2023-02-22T02:43:32.186Z,5.72
2023-02-22T02:44:33.898Z,4.44
2023-02-22T02:45:35.598Z,4.76
2023-02-22T02:46:37.354Z,4.18
2023-02-22T02:47:39.071Z,5.38
2023-02-22T02:48:40.796Z,6.55
2023-02-22T02:49:42.503Z,8.58
2023-02-22T02:50:44.770Z,11.68
2023-02-22T02:51:46.621Z,17.60
2023-02-22T02:52:48.430Z,22.29
2023-02-22T02:53:50.230Z,29.15
2023-02-22T02:54:52.051Z,25.07
2023-02-22T02:55:53.855Z,20.33
2023-02-22T02:56:55.808Z,12.40
2023-02-22T02:57:57.574Z,9.54
2023-02-22T02:58:59.330Z,10.50
2023-02-22T03:00:01.097Z,7.89
2023-02-22T03:01:02.846Z,5.92
2023-02-22T03:02:04.709Z,4.76
2023-02-22T03:03:06.521Z,4.60
2023-02-22T03:04:08.540Z,5.73
2023-02-22T03:05:10.236Z,4.55
2023-02-22T03:06:12.497Z,3.67
2023-02-22T03:07:14.369Z,3.89
2023-02-22T03:08:16.153Z,2.32
2023-02-22T03:09:17.980Z,3.32
2023-02-22T03:10:19.909Z,6.14
2023-02-22T03:11:21.696Z,4.19
2023-02-22T03:12:23.550Z,3.87
2023-02-22T03:13:25.365Z,4.45
2023-02-22T03:14:27.201Z,3.46
2023-02-22T03:15:28.994Z,2.79
2023-02-22T03:16:30.931Z,4.30
2023-02-22T03:17:32.859Z,3.03
2023-02-22T03:18:34.701Z,3.45
2023-02-22T03:19:36.503Z,4.01
2023-02-22T03:20:38.309Z,3.06
2023-02-22T03:21:40.113Z,2.56
2023-02-22T03:22:41.977Z,3.74
2023-02-22T03:23:43.776Z,3.46
2023-02-22T03:24:45.577Z,3.24
2023-02-22T03:25:47.376Z,3.06
2023-02-22T03:26:49.197Z,3.25
2023-02-22T03:27:51.060Z,3.24
2023-02-22T03:28:52.849Z,3.23
2023-02-22T03:29:54.654Z,3.57
2023-02-22T03:30:56.608Z,3.33
2023-02-22T03:31:58.417Z,3.81
2023-02-22T03:33:00.232Z,3.61
2023-02-22T03:34:02.031Z,4.02
2023-02-22T03:35:03.841Z,3.24
2023-02-22T03:36:05.651Z,3.18
2023-02-22T03:37:07.472Z,3.19
2023-02-22T03:38:09.316Z,3.95
2023-02-22T03:39:12.185Z,4.47
2023-02-22T03:40:14.694Z,4.04
2023-02-22T03:41:16.787Z,4.36
2023-02-22T03:42:18.837Z,3.39
2023-02-22T03:43:20.682Z,2.87
2023-02-22T03:44:22.477Z,3.95
2023-02-22T03:45:24.306Z,3.29
2023-02-22T03:46:26.271Z,4.01
2023-02-22T03:47:28.106Z,5.31
2023-02-22T03:48:29.954Z,3.95
2023-02-22T03:49:31.774Z,3.48
2023-02-22T03:50:33.578Z,4.03
2023-02-22T03:51:35.379Z,3.67
2023-02-22T03:52:37.179Z,4.52
2023-02-22T03:53:39.000Z,3.57
2023-02-22T03:54:40.803Z,4.65
2023-02-22T03:55:42.612Z,5.06
2023-02-22T03:56:44.608Z,3.67
2023-02-22T03:57:46.424Z,3.63
2023-02-22T03:58:48.249Z,4.39
2023-02-22T03:59:50.083Z,4.24
2023-02-22T04:00:51.853Z,5.05
2023-02-22T04:01:53.657Z,4.49
2023-02-22T04:02:55.529Z,4.17
2023-02-22T04:03:57.469Z,5.37
2023-02-22T04:04:59.267Z,4.25
2023-02-22T04:06:01.046Z,4.40
2023-02-22T04:07:02.873Z,5.81
2023-02-22T04:08:04.679Z,4.41
2023-02-22T04:09:06.517Z,4.08
2023-02-22T04:10:08.587Z,5.35
2023-02-22T04:11:10.460Z,5.54
2023-02-22T04:12:12.267Z,6.19
2023-02-22T04:13:14.082Z,6.71
2023-02-22T04:14:15.889Z,4.99
2023-02-22T04:15:17.705Z,5.21
2023-02-22T04:16:19.914Z,6.78
2023-02-22T04:17:21.758Z,6.29
2023-02-22T04:18:23.578Z,6.59
2023-02-22T04:19:25.394Z,6.83
2023-02-22T04:20:27.201Z,8.84
2023-02-22T04:21:29.039Z,10.43
2023-02-22T04:22:30.843Z,10.49
2023-02-22T04:23:32.639Z,13.41
2023-02-22T04:24:34.454Z,16.39
2023-02-22T04:25:36.242Z,23.32
2023-02-22T04:26:38.279Z,24.59
2023-02-22T04:27:40.089Z,22.45
2023-02-22T04:28:41.910Z,20.89
2023-02-22T04:29:43.715Z,23.81
2023-02-22T04:30:45.750Z,26.27
2023-02-22T04:31:47.624Z,22.33
2023-02-22T04:32:49.398Z,18.73
2023-02-22T04:33:51.208Z,17.87
2023-02-22T04:34:53.017Z,14.11
2023-02-22T04:35:54.843Z,16.29
2023-02-22T04:36:56.705Z,15.01
2023-02-22T04:37:58.498Z,18.21
2023-02-22T04:39:00.309Z,13.82
2023-02-22T04:40:02.129Z,14.55
2023-02-22T04:41:03.935Z,13.82
2023-02-22T04:42:05.805Z,13.73
2023-02-22T04:43:07.606Z,16.73
2023-02-22T04:44:09.402Z,14.69
2023-02-22T04:45:11.205Z,16.39
2023-02-22T04:46:13.536Z,16.13
2023-02-22T04:47:15.391Z,14.63
2023-02-22T04:48:17.202Z,13.38
2023-02-22T04:49:19.004Z,13.60
2023-02-22T04:50:21.186Z,11.79
2023-02-22T04:51:22.933Z,12.02
2023-02-22T04:52:24.772Z,13.18
2023-02-22T04:53:26.591Z,14.59
2023-02-22T04:54:28.387Z,17.56
2023-02-22T04:55:30.202Z,16.15
2023-02-22T04:56:32.117Z,22.85
2023-02-22T04:57:33.968Z,22.90
2023-02-22T04:58:35.745Z,26.77
2023-02-22T04:59:37.576Z,25.51
2023-02-22T05:00:39.502Z,35.84
2023-02-22T05:01:41.490Z,34.11
2023-02-22T05:02:43.366Z,31.87
2023-02-22T05:03:45.143Z,40.80
2023-02-22T05:04:46.975Z,39.71
2023-02-22T05:05:48.753Z,40.41
2023-02-22T05:06:51.851Z,37.45
2023-02-22T05:07:54.083Z,38.95
2023-02-22T05:08:55.870Z,49.49
2023-02-22T05:09:57.693Z,62.73
2023-02-22T05:10:59.745Z,54.77
2023-02-22T05:12:01.547Z,49.72
2023-02-22T05:13:04.282Z,49.35
2023-02-22T05:14:06.194Z,52.31
2023-02-22T05:15:08.022Z,48.31
2023-02-22T05:16:10.086Z,69.83
2023-02-22T05:17:11.968Z,64.18
2023-02-22T05:18:13.766Z,55.76
2023-02-22T05:19:15.565Z,50.59
2023-02-22T05:20:19.733Z,45.27
2023-02-22T05:21:21.548Z,40.16
2023-02-22T05:22:23.352Z,37.29
2023-02-22T05:23:25.155Z,43.06
2023-02-22T05:24:26.970Z,36.04
2023-02-22T05:25:28.760Z,29.35
2023-02-22T05:26:30.621Z,25.09
2023-02-22T05:27:32.425Z,20.71
2023-02-22T05:28:34.224Z,19.08
2023-02-22T05:29:36.066Z,17.85
2023-02-22T05:30:37.977Z,24.66
2023-02-22T05:31:39.878Z,24.80
2023-02-22T05:32:42.088Z,18.27
2023-02-22T05:33:43.905Z,15.85
2023-02-22T05:34:45.746Z,15.99
2023-02-22T05:35:47.528Z,24.33
2023-02-22T05:36:49.377Z,18.07
2023-02-22T05:37:51.187Z,20.95
2023-02-22T05:38:52.986Z,21.51
2023-02-22T05:39:54.786Z,18.37
2023-02-22T05:40:56.596Z,14.05
2023-02-22T05:41:58.442Z,14.09
2023-02-22T05:43:00.256Z,13.91
2023-02-22T05:44:02.065Z,12.22
2023-02-22T05:45:03.884Z,11.93
2023-02-22T05:46:05.901Z,12.53
2023-02-22T05:47:07.754Z,11.66
2023-02-22T05:48:09.544Z,14.44
2023-02-22T05:49:11.635Z,15.19
2023-02-22T05:50:15.074Z,12.83
2023-02-22T05:51:17.126Z,13.75
2023-02-22T05:52:19.047Z,13.11
2023-02-22T05:53:20.841Z,14.55
2023-02-22T05:54:22.669Z,15.29
2023-02-22T05:55:24.484Z,20.32
2023-02-22T05:56:26.793Z,26.27
2023-02-22T05:57:28.646Z,17.46
2023-02-22T05:58:30.462Z,30.45
2023-02-22T05:59:32.260Z,25.47
2023-02-22T06:00:34.572Z,18.29
2023-02-22T06:01:36.445Z,21.79
2023-02-22T06:02:38.340Z,16.30
2023-02-22T06:03:40.132Z,14.97
2023-02-22T06:04:41.931Z,16.81
2023-02-22T06:05:43.733Z,15.12
2023-02-22T06:06:45.739Z,14.86
2023-02-22T06:07:47.589Z,16.20
2023-02-22T06:08:49.413Z,14.58
2023-02-22T06:09:51.199Z,14.36
2023-02-22T06:10:53.091Z,14.39
2023-02-22T06:11:54.905Z,14.69
2023-02-22T06:12:56.821Z,13.70
2023-02-22T06:13:58.597Z,13.59
2023-02-22T06:15:00.441Z,14.32
2023-02-22T06:16:02.316Z,13.41
2023-02-22T06:17:04.083Z,13.11
2023-02-22T06:18:05.933Z,23.40
2023-02-22T06:19:07.731Z,19.65
2023-02-22T06:20:10.148Z,16.32
2023-02-22T06:21:11.952Z,16.70
2023-02-22T06:22:13.756Z,15.64
2023-02-22T06:23:15.624Z,14.28
2023-02-22T06:24:17.440Z,15.88
2023-02-22T06:25:19.285Z,14.49
2023-02-22T06:26:22.446Z,17.97
2023-02-22T06:27:24.290Z,15.41
2023-02-22T06:28:26.134Z,13.73
2023-02-22T06:29:27.953Z,13.47
2023-02-22T06:30:30.322Z,11.73
2023-02-22T06:31:32.273Z,12.95
2023-02-22T06:32:34.100Z,9.91
2023-02-22T06:33:35.964Z,11.18
2023-02-22T06:34:37.759Z,11.57
2023-02-22T06:35:39.790Z,13.75
2023-02-22T06:36:41.606Z,13.57
2023-02-22T06:37:43.401Z,12.74
2023-02-22T06:38:45.309Z,14.45
2023-02-22T06:39:47.088Z,12.90
2023-02-22T06:40:48.998Z,12.51
2023-02-22T06:41:50.861Z,12.53
2023-02-22T06:42:52.689Z,11.91
2023-02-22T06:43:54.553Z,12.87
2023-02-22T06:44:56.376Z,14.00
2023-02-22T06:45:58.234Z,13.69
2023-02-22T06:47:00.114Z,13.23
2023-02-22T06:48:01.919Z,14.27
2023-02-22T06:49:03.809Z,15.21
2023-02-22T06:50:05.950Z,15.63
2023-02-22T06:51:07.743Z,15.96
2023-02-22T06:52:09.570Z,16.26
2023-02-22T06:53:11.392Z,18.75
2023-02-22T06:54:13.279Z,19.05
2023-02-22T06:55:15.130Z,20.59
2023-02-22T06:56:17.136Z,20.25
2023-02-22T06:57:19.563Z,18.50
2023-02-22T06:58:21.475Z,19.79
2023-02-22T06:59:23.341Z,21.61
2023-02-22T07:00:25.223Z,19.47
2023-02-22T07:01:27.117Z,19.93
2023-02-22T07:02:28.931Z,20.08
2023-02-22T07:03:30.755Z,22.01
2023-02-22T07:04:32.588Z,24.24
2023-02-22T07:05:34.436Z,25.73
2023-02-22T07:06:36.856Z,24.17
2023-02-22T07:07:38.700Z,22.01
2023-02-22T07:08:40.519Z,20.74
2023-02-22T07:09:43.844Z,20.23
2023-02-22T07:10:46.173Z,23.38
2023-02-22T07:11:48.041Z,25.11
2023-02-22T07:12:49.845Z,25.04
2023-02-22T07:13:51.708Z,20.89
2023-02-22T07:14:53.545Z,17.60
2023-02-22T07:15:55.454Z,23.63
2023-02-22T07:16:57.464Z,23.88
2023-02-22T07:17:59.299Z,22.76
2023-02-22T07:19:01.231Z,25.16
2023-02-22T07:20:03.390Z,21.31
2023-02-22T07:21:05.155Z,24.57
2023-02-22T07:22:06.972Z,21.55
2023-02-22T07:23:08.806Z,19.56
2023-02-22T07:24:10.612Z,17.13
2023-02-22T07:25:12.456Z,16.07
2023-02-22T07:26:14.576Z,17.16
2023-02-22T07:27:16.370Z,18.29
2023-02-22T07:28:18.186Z,16.89
2023-02-22T07:29:19.988Z,17.63
2023-02-22T07:30:22.144Z,18.72
2023-02-22T07:31:23.982Z,21.17
2023-02-22T07:32:25.837Z,22.58
2023-02-22T07:33:27.853Z,26.39
2023-02-22T07:34:29.677Z,38.14
2023-02-22T07:35:31.482Z,32.42
2023-02-22T07:36:33.545Z,29.07
2023-02-22T07:37:35.385Z,32.41
2023-02-22T07:38:37.200Z,24.52
2023-02-22T07:39:38.995Z,41.71
2023-02-22T07:40:41.427Z,27.81
2023-02-22T07:41:43.290Z,20.16
2023-02-22T07:42:45.108Z,21.93
2023-02-22T07:43:46.906Z,18.46
2023-02-22T07:44:48.710Z,19.26
2023-02-22T07:45:50.539Z,17.17
2023-02-22T07:46:52.372Z,13.35
2023-02-22T07:47:54.198Z,13.73
2023-02-22T07:48:55.997Z,12.11
2023-02-22T07:49:57.798Z,15.05
2023-02-22T07:50:59.736Z,16.61
2023-02-22T07:52:01.621Z,16.80
2023-02-22T07:53:03.390Z,19.30
2023-02-22T07:54:05.280Z,21.95
2023-02-22T07:55:07.089Z,21.56
2023-02-22T07:56:09.532Z,15.38
2023-02-22T07:57:11.317Z,19.95
2023-02-22T07:58:13.143Z,16.17
2023-02-22T07:59:15.009Z,21.06
2023-02-22T08:00:17.519Z,20.71
2023-02-22T08:01:19.557Z,19.10
2023-02-22T08:02:21.494Z,16.54
2023-02-22T08:03:23.305Z,14.95
2023-02-22T08:04:25.321Z,17.23
2023-02-22T08:05:27.131Z,15.43
2023-02-22T08:06:29.068Z,18.05
2023-02-22T08:07:30.889Z,18.21
2023-02-22T08:08:32.696Z,16.31
2023-02-22T08:09:34.542Z,16.63
2023-02-22T08:10:36.490Z,15.97
2023-02-22T08:11:38.324Z,17.64
2023-02-22T08:12:40.142Z,18.72
2023-02-22T08:13:41.949Z,18.03
2023-02-22T08:14:43.818Z,13.98
2023-02-22T08:15:45.664Z,18.01
2023-02-22T08:16:47.724Z,17.33
2023-02-22T08:17:49.581Z,21.00
2023-02-22T08:18:51.424Z,21.36
2023-02-22T08:19:53.306Z,22.61
2023-02-22T08:20:55.312Z,26.03
2023-02-22T08:21:57.139Z,23.15
2023-02-22T08:22:58.958Z,22.16
2023-02-22T08:24:00.764Z,23.90
2023-02-22T08:25:02.640Z,19.97
2023-02-22T08:26:04.450Z,21.09
2023-02-22T08:27:06.257Z,18.85
2023-02-22T08:28:08.103Z,21.03
2023-02-22T08:29:09.893Z,30.47
2023-02-22T08:30:11.833Z,27.32
2023-02-22T08:31:13.702Z,23.88
2023-02-22T08:32:15.572Z,19.36
2023-02-22T08:33:17.707Z,16.15
2023-02-22T08:34:19.672Z,13.29
2023-02-22T08:35:21.492Z,13.17
2023-02-22T08:36:23.356Z,13.25
2023-02-22T08:37:25.162Z,18.23
2023-02-22T08:38:26.985Z,18.17
2023-02-22T08:39:28.816Z,19.26
2023-02-22T08:40:30.837Z,17.27
2023-02-22T08:41:32.691Z,16.76
2023-02-22T08:42:34.494Z,16.29
2023-02-22T08:43:36.295Z,18.39
2023-02-22T08:44:38.113Z,14.19
2023-02-22T08:45:39.990Z,13.31
2023-02-22T08:46:43.604Z,11.13
2023-02-22T08:47:45.437Z,12.79
2023-02-22T08:48:47.232Z,11.26
2023-02-22T08:49:49.037Z,12.21
2023-02-22T08:50:50.937Z,14.61
2023-02-22T08:51:52.859Z,14.33
2023-02-22T08:52:54.674Z,18.04
2023-02-22T08:53:56.475Z,20.27
2023-02-22T08:54:58.299Z,21.73
2023-02-22T08:56:00.132Z,15.97
2023-02-22T08:57:01.933Z,17.40
2023-02-22T08:58:03.862Z,16.29
2023-02-22T08:59:05.637Z,16.45
2023-02-22T09:00:08.967Z,17.07
2023-02-22T09:01:10.778Z,13.08
2023-02-22T09:02:12.603Z,12.99
2023-02-22T09:03:14.469Z,14.29
2023-02-22T09:04:16.245Z,12.69
2023-02-22T09:05:18.041Z,12.83
2023-02-22T09:06:20.559Z,11.57
2023-02-22T09:07:22.409Z,12.43
2023-02-22T09:08:24.279Z,10.51
2023-02-22T09:09:26.076Z,10.31
2023-02-22T09:10:27.899Z,9.49
2023-02-22T09:11:29.690Z,10.22
2023-02-22T09:12:31.560Z,13.89
2023-02-22T09:13:33.389Z,14.39
2023-02-22T09:14:35.461Z,18.37
2023-02-22T09:15:37.331Z,19.65
2023-02-22T09:16:39.504Z,14.83
2023-02-22T09:17:41.309Z,14.77
2023-02-22T09:18:44.510Z,13.93
2023-02-22T09:19:46.540Z,13.19
2023-02-22T09:20:48.673Z,13.40
2023-02-22T09:21:50.467Z,13.04
2023-02-22T09:22:52.297Z,10.36
2023-02-22T09:23:54.179Z,11.12
2023-02-22T09:24:58.488Z,10.91
2023-02-22T09:25:59.656Z,11.41
2023-02-22T09:27:01.675Z,13.18
2023-02-22T09:28:03.726Z,13.56
2023-02-22T09:29:05.659Z,14.29
2023-02-22T09:30:07.705Z,13.18
2023-02-22T09:31:09.639Z,18.10
2023-02-22T09:32:11.640Z,17.98
2023-02-22T09:33:13.803Z,12.61
2023-02-22T09:34:15.723Z,15.07
2023-02-22T09:35:17.519Z,15.11
2023-02-22T09:36:19.581Z,11.59
2023-02-22T09:37:21.325Z,9.81
2023-02-22T09:38:23.155Z,10.12
2023-02-22T09:39:25.035Z,12.37
2023-02-22T09:40:26.864Z,11.78
2023-02-22T09:41:28.761Z,13.44
2023-02-22T09:42:30.528Z,10.71
2023-02-22T09:43:32.356Z,10.75
2023-02-22T09:44:34.158Z,10.49
2023-02-22T09:45:36.005Z,8.73
2023-02-22T09:46:37.833Z,9.86
2023-02-22T09:47:39.641Z,12.82
2023-02-22T09:48:41.404Z,13.31
2023-02-22T09:49:43.211Z,8.74
2023-02-22T09:50:45.075Z,8.45
2023-02-22T09:51:48.573Z,11.90
2023-02-22T09:52:50.400Z,10.53
2023-02-22T09:53:53.749Z,9.28
2023-02-22T09:54:55.546Z,13.92
2023-02-22T09:55:57.359Z,15.06
2023-02-22T09:56:59.297Z,14.13
2023-02-22T09:58:01.128Z,10.81
2023-02-22T09:59:02.901Z,16.03
2023-02-22T10:00:05.017Z,23.13
2023-02-22T10:01:06.946Z,48.99
2023-02-22T10:02:08.799Z,30.96
2023-02-22T10:03:10.640Z,33.57
2023-02-22T10:04:12.422Z,37.83
2023-02-22T10:05:14.280Z,41.63
2023-02-22T10:06:16.631Z,23.29
2023-02-22T10:07:18.559Z,18.19
2023-02-22T10:08:20.371Z,19.96
2023-02-22T10:09:22.299Z,20.29
2023-02-22T10:10:24.622Z,20.83
2023-02-22T10:11:26.480Z,20.79
2023-02-22T10:12:28.302Z,17.85
2023-02-22T10:13:30.115Z,17.21
2023-02-22T10:14:31.990Z,16.91
2023-02-22T10:15:33.786Z,14.37
2023-02-22T10:16:35.717Z,17.50
2023-02-22T10:17:37.727Z,19.05
2023-02-22T10:18:39.537Z,18.11
2023-02-22T10:19:41.331Z,18.51
2023-02-22T10:20:43.348Z,17.53
2023-02-22T10:21:45.193Z,19.30
2023-02-22T10:22:46.995Z,15.99
2023-02-22T10:23:48.844Z,15.87
2023-02-22T10:24:50.762Z,16.08
2023-02-22T10:25:52.566Z,16.59
2023-02-22T10:26:54.473Z,19.47
2023-02-22T10:27:56.520Z,18.35
2023-02-22T10:28:58.347Z,20.96
2023-02-22T10:30:00.154Z,20.54
2023-02-22T10:31:02.086Z,22.41
2023-02-22T10:32:04.048Z,21.36
2023-02-22T10:33:06.027Z,25.26
2023-02-22T10:34:08.845Z,23.95
2023-02-22T10:35:10.673Z,31.36
2023-02-22T10:36:12.904Z,27.86
2023-02-22T10:37:14.758Z,32.81
2023-02-22T10:38:16.599Z,29.53
2023-02-22T10:39:18.468Z,32.31
2023-02-22T10:40:20.404Z,32.02
2023-02-22T10:41:22.224Z,33.88
2023-02-22T10:42:24.030Z,30.77
2023-02-22T10:43:25.978Z,31.71
2023-02-22T10:44:27.790Z,30.14
2023-02-22T10:45:29.778Z,34.03
2023-02-22T10:46:31.619Z,34.99
2023-02-22T10:47:33.436Z,30.00
2023-02-22T10:48:35.284Z,39.17
2023-02-22T10:49:37.092Z,28.34
2023-02-22T10:50:38.998Z,24.79
2023-02-22T10:51:40.798Z,21.97
2023-02-22T10:52:42.615Z,20.37
2023-02-22T10:53:44.472Z,23.75
2023-02-22T10:54:46.296Z,20.54
2023-02-22T10:55:48.124Z,18.91
2023-02-22T10:56:49.904Z,16.41
2023-02-22T10:57:51.714Z,15.65
2023-02-22T10:58:53.693Z,22.79
2023-02-22T10:59:55.506Z,14.00
2023-02-22T11:00:57.458Z,16.00
2023-02-22T11:01:59.223Z,15.73
2023-02-22T11:03:01.031Z,12.41
2023-02-22T11:04:02.848Z,16.36
2023-02-22T11:05:04.844Z,11.59
2023-02-22T11:06:07.211Z,14.31
2023-02-22T11:07:09.115Z,14.81
2023-02-22T11:08:10.942Z,18.53
2023-02-22T11:09:12.732Z,18.84
2023-02-22T11:10:16.935Z,16.65
2023-02-22T11:11:18.854Z,25.72
2023-02-22T11:12:20.635Z,24.62
2023-02-22T11:13:22.459Z,24.00
2023-02-22T11:14:24.263Z,21.39
2023-02-22T11:15:26.126Z,25.53
2023-02-22T11:16:28.472Z,25.69
2023-02-22T11:17:30.363Z,33.61
2023-02-22T11:18:32.210Z,32.33
2023-02-22T11:19:34.049Z,33.13
2023-02-22T11:20:35.968Z,34.49
2023-02-22T11:21:37.781Z,30.99
2023-02-22T11:22:39.604Z,32.23
2023-02-22T11:23:43.635Z,30.20
2023-02-22T11:24:49.289Z,27.37
2023-02-22T11:25:50.473Z,30.40
2023-02-22T11:26:52.408Z,32.53
2023-02-22T11:27:54.236Z,29.26
2023-02-22T11:28:56.074Z,34.01
2023-02-22T11:29:57.945Z,41.38
2023-02-22T11:30:59.839Z,33.37
2023-02-22T11:32:01.710Z,34.82
2023-02-22T11:33:03.475Z,35.29
2023-02-22T11:34:05.286Z,32.92
2023-02-22T11:35:09.244Z,33.63
2023-02-22T11:36:12.203Z,26.28
2023-02-22T11:37:14.016Z,25.71
2023-02-22T11:38:15.818Z,24.55
2023-02-22T11:39:17.659Z,29.09
2023-02-22T11:40:20.964Z,25.43
2023-02-22T11:41:22.832Z,23.83
2023-02-22T11:42:24.623Z,21.16
2023-02-22T11:43:26.433Z,24.47
2023-02-22T11:44:28.260Z,20.99
2023-02-22T11:45:30.061Z,20.97
2023-02-22T11:46:32.059Z,17.96
2023-02-22T11:47:33.840Z,16.40
2023-02-22T11:48:35.640Z,18.56
2023-02-22T11:49:37.452Z,19.27
2023-02-22T11:50:39.480Z,16.45
2023-02-22T11:51:41.327Z,17.10
2023-02-22T11:52:43.135Z,15.40
2023-02-22T11:53:44.955Z,13.42
2023-02-22T11:54:46.773Z,15.39
2023-02-22T11:55:48.587Z,11.71
2023-02-22T11:56:50.437Z,11.26
2023-02-22T11:57:52.242Z,12.39
2023-02-22T11:58:54.058Z,12.17
2023-02-22T11:59:55.950Z,12.40
2023-02-22T12:00:57.773Z,13.37
2023-02-22T12:01:59.631Z,15.23
2023-02-22T12:03:01.518Z,26.76
2023-02-22T12:04:03.457Z,24.19
2023-02-22T12:05:05.412Z,16.91
2023-02-22T12:06:07.683Z,15.72
2023-02-22T12:07:09.561Z,19.05
2023-02-22T12:08:19.218Z,21.52
2023-02-22T12:09:14.988Z,19.44
2023-02-22T12:10:16.795Z,25.92
2023-02-22T12:11:18.596Z,24.25
2023-02-22T12:12:20.450Z,22.33
2023-02-22T12:13:22.249Z,22.03
2023-02-22T12:14:24.101Z,22.61
2023-02-22T12:15:25.867Z,22.94
2023-02-22T12:16:27.675Z,24.95
2023-02-22T12:17:29.520Z,27.55
2023-02-22T12:18:31.333Z,22.81
2023-02-22T12:19:33.147Z,22.59
2023-02-22T12:20:35.156Z,24.41
2023-02-22T12:21:36.966Z,24.56
2023-02-22T12:22:38.874Z,25.65
2023-02-22T12:23:40.699Z,21.72
2023-02-22T12:24:42.513Z,21.71
2023-02-22T12:25:44.328Z,25.37
2023-02-22T12:26:46.234Z,28.02
2023-02-22T12:27:48.085Z,36.86
2023-02-22T12:28:49.949Z,43.89
2023-02-22T12:29:51.798Z,43.51
2023-02-22T12:30:54.024Z,47.77
2023-02-22T12:31:55.895Z,45.40
2023-02-22T12:32:57.862Z,42.97
2023-02-22T12:33:59.797Z,34.17
2023-02-22T12:35:01.653Z,32.26
2023-02-22T12:36:03.474Z,27.17
2023-02-22T12:37:05.290Z,24.49
2023-02-22T12:38:07.168Z,27.06
2023-02-22T12:39:08.960Z,32.81
2023-02-22T12:40:11.063Z,29.89
2023-02-22T12:41:12.901Z,30.80
2023-02-22T12:42:14.723Z,36.74
2023-02-22T12:43:16.646Z,34.96
2023-02-22T12:44:18.484Z,32.70
2023-02-22T12:45:20.302Z,28.51
2023-02-22T12:46:22.894Z,26.99
2023-02-22T12:47:24.790Z,27.14
2023-02-22T12:48:26.656Z,30.67
2023-02-22T12:49:28.454Z,29.96
2023-02-22T12:50:30.262Z,32.50
2023-02-22T12:51:32.086Z,41.33
2023-02-22T12:52:33.934Z,39.41
2023-02-22T12:53:35.765Z,38.45
2023-02-22T12:54:37.605Z,29.00
2023-02-22T12:55:39.408Z,26.99
2023-02-22T12:56:41.468Z,26.26
2023-02-22T12:57:43.242Z,26.49
2023-02-22T12:58:45.122Z,25.67
2023-02-22T12:59:46.898Z,28.70
2023-02-22T13:00:48.720Z,29.02
2023-02-22T13:01:50.579Z,28.56
2023-02-22T13:02:52.442Z,27.91
2023-02-22T13:03:54.288Z,30.31
2023-02-22T13:04:56.110Z,35.59
2023-02-22T13:05:57.894Z,40.78
2023-02-22T13:06:59.907Z,32.95
2023-02-22T13:08:01.716Z,42.90
2023-02-22T13:09:03.581Z,41.86
2023-02-22T13:10:06.112Z,47.31
2023-02-22T13:11:07.930Z,43.28
2023-02-22T13:12:09.733Z,42.53
2023-02-22T13:13:11.525Z,42.17
2023-02-22T13:14:14.007Z,44.46
2023-02-22T13:15:15.816Z,51.99
2023-02-22T13:16:17.885Z,43.89
2023-02-22T13:17:19.652Z,40.16
2023-02-22T13:18:21.506Z,44.99
2023-02-22T13:19:23.405Z,47.71
2023-02-22T13:20:26.455Z,43.54
2023-02-22T13:21:28.269Z,44.23
2023-02-22T13:22:30.059Z,46.21
2023-02-22T13:23:31.916Z,46.27
2023-02-22T13:24:33.780Z,35.91